sensor_id;sensor_type;location;lat;lon;timestamp;P1;durP1;ratioP1;P2;durP2;ratioP2
13404;SDS011;6773;51.192;7.024;2024-03-07T00:01:54;48.87;;;25.83;;
13404;SDS011;6773;51.192;7.024;2024-03-07T00:04:20;50.77;;;25.80;;
13404;SDS011;6773;51.192;7.024;2024-03-07T00:06:46;53.70;;;27.53;;
13404;SDS011;6773;51.192;7.024;2024-03-07T00:09:13;50.57;;;26.77;;
13404;SDS011;6773;51.192;7.024;2024-03-07T00:11:40;52.73;;;25.07;;
13404;SDS011;6773;51.192;7.024;2024-03-07T00:14:06;54.43;;;25.47;;
13404;SDS011;6773;51.192;7.024;2024-03-07T00:16:32;53.73;;;27.10;;
13404;SDS011;6773;51.192;7.024;2024-03-07T00:18:58;52.83;;;26.07;;
13404;SDS011;6773;51.192;7.024;2024-03-07T00:21:25;49.10;;;24.60;;
13404;SDS011;6773;51.192;7.024;2024-03-07T00:23:51;50.10;;;25.53;;
13404;SDS011;6773;51.192;7.024;2024-03-07T00:26:19;48.70;;;24.00;;
13404;SDS011;6773;51.192;7.024;2024-03-07T00:28:44;45.27;;;23.70;;
13404;SDS011;6773;51.192;7.024;2024-03-07T00:31:10;45.43;;;24.50;;
13404;SDS011;6773;51.192;7.024;2024-03-07T00:33:36;48.77;;;25.63;;
13404;SDS011;6773;51.192;7.024;2024-03-07T00:36:02;47.40;;;24.10;;
13404;SDS011;6773;51.192;7.024;2024-03-07T00:38:28;47.07;;;23.80;;
13404;SDS011;6773;51.192;7.024;2024-03-07T00:40:54;50.67;;;25.03;;
13404;SDS011;6773;51.192;7.024;2024-03-07T00:43:20;54.73;;;26.47;;
13404;SDS011;6773;51.192;7.024;2024-03-07T00:45:46;53.63;;;25.90;;
13404;SDS011;6773;51.192;7.024;2024-03-07T00:48:15;52.90;;;26.43;;
13404;SDS011;6773;51.192;7.024;2024-03-07T00:50:41;45.90;;;23.10;;
13404;SDS011;6773;51.192;7.024;2024-03-07T00:53:08;53.07;;;26.27;;
13404;SDS011;6773;51.192;7.024;2024-03-07T00:55:34;57.00;;;26.20;;
13404;SDS011;6773;51.192;7.024;2024-03-07T00:58:00;54.90;;;25.57;;
13404;SDS011;6773;51.192;7.024;2024-03-07T01:00:26;51.20;;;24.70;;
13404;SDS011;6773;51.192;7.024;2024-03-07T01:02:53;47.03;;;24.60;;
13404;SDS011;6773;51.192;7.024;2024-03-07T01:05:19;54.57;;;27.67;;
13404;SDS011;6773;51.192;7.024;2024-03-07T01:07:46;48.73;;;25.67;;
13404;SDS011;6773;51.192;7.024;2024-03-07T01:10:12;55.53;;;25.87;;
13404;SDS011;6773;51.192;7.024;2024-03-07T01:12:39;49.53;;;24.40;;
13404;SDS011;6773;51.192;7.024;2024-03-07T01:15:05;51.57;;;24.90;;
13404;SDS011;6773;51.192;7.024;2024-03-07T01:17:31;52.83;;;23.30;;
13404;SDS011;6773;51.192;7.024;2024-03-07T01:19:57;49.70;;;24.70;;
13404;SDS011;6773;51.192;7.024;2024-03-07T01:22:23;47.47;;;23.70;;
13404;SDS011;6773;51.192;7.024;2024-03-07T01:24:49;48.90;;;24.27;;
13404;SDS011;6773;51.192;7.024;2024-03-07T01:27:18;51.37;;;24.90;;
13404;SDS011;6773;51.192;7.024;2024-03-07T01:29:44;44.10;;;23.77;;
13404;SDS011;6773;51.192;7.024;2024-03-07T01:32:10;51.27;;;24.50;;
13404;SDS011;6773;51.192;7.024;2024-03-07T01:34:36;49.97;;;24.30;;
13404;SDS011;6773;51.192;7.024;2024-03-07T01:37:02;50.33;;;24.50;;
13404;SDS011;6773;51.192;7.024;2024-03-07T01:39:28;48.50;;;24.03;;
13404;SDS011;6773;51.192;7.024;2024-03-07T01:41:54;47.43;;;25.00;;
13404;SDS011;6773;51.192;7.024;2024-03-07T01:44:20;46.53;;;24.27;;
13404;SDS011;6773;51.192;7.024;2024-03-07T01:46:46;45.27;;;23.80;;
13404;SDS011;6773;51.192;7.024;2024-03-07T01:49:15;50.07;;;24.17;;
13404;SDS011;6773;51.192;7.024;2024-03-07T01:51:41;44.63;;;23.23;;
13404;SDS011;6773;51.192;7.024;2024-03-07T01:54:08;41.23;;;24.27;;
13404;SDS011;6773;51.192;7.024;2024-03-07T01:56:35;42.47;;;23.80;;
13404;SDS011;6773;51.192;7.024;2024-03-07T01:59:03;41.67;;;23.23;;
13404;SDS011;6773;51.192;7.024;2024-03-07T02:01:30;42.50;;;22.90;;
13404;SDS011;6773;51.192;7.024;2024-03-07T02:03:56;45.20;;;24.27;;
13404;SDS011;6773;51.192;7.024;2024-03-07T02:06:23;41.13;;;24.20;;
13404;SDS011;6773;51.192;7.024;2024-03-07T02:08:49;40.13;;;22.97;;
13404;SDS011;6773;51.192;7.024;2024-03-07T02:11:14;41.83;;;22.23;;
13404;SDS011;6773;51.192;7.024;2024-03-07T02:13:40;40.63;;;22.40;;
13404;SDS011;6773;51.192;7.024;2024-03-07T02:16:06;39.40;;;23.07;;
13404;SDS011;6773;51.192;7.024;2024-03-07T02:18:33;39.63;;;22.03;;
13404;SDS011;6773;51.192;7.024;2024-03-07T02:20:59;42.67;;;22.40;;
13404;SDS011;6773;51.192;7.024;2024-03-07T02:23:25;37.57;;;21.93;;
13404;SDS011;6773;51.192;7.024;2024-03-07T02:25:52;37.83;;;21.70;;
13404;SDS011;6773;51.192;7.024;2024-03-07T02:28:18;37.40;;;22.00;;
13404;SDS011;6773;51.192;7.024;2024-03-07T02:30:44;38.27;;;22.00;;
13404;SDS011;6773;51.192;7.024;2024-03-07T02:33:11;41.23;;;23.80;;
13404;SDS011;6773;51.192;7.024;2024-03-07T02:35:37;37.33;;;22.70;;
13404;SDS011;6773;51.192;7.024;2024-03-07T02:38:03;36.37;;;21.27;;
13404;SDS011;6773;51.192;7.024;2024-03-07T02:40:30;35.47;;;20.63;;
13404;SDS011;6773;51.192;7.024;2024-03-07T02:42:56;35.87;;;21.10;;
13404;SDS011;6773;51.192;7.024;2024-03-07T02:45:22;37.53;;;21.63;;
13404;SDS011;6773;51.192;7.024;2024-03-07T02:47:48;39.20;;;22.13;;
13404;SDS011;6773;51.192;7.024;2024-03-07T02:50:14;39.97;;;21.27;;
13404;SDS011;6773;51.192;7.024;2024-03-07T02:52:40;37.93;;;22.07;;
13404;SDS011;6773;51.192;7.024;2024-03-07T02:55:07;35.47;;;22.20;;
13404;SDS011;6773;51.192;7.024;2024-03-07T02:57:35;34.90;;;21.20;;
13404;SDS011;6773;51.192;7.024;2024-03-07T03:00:04;37.03;;;19.23;;
13404;SDS011;6773;51.192;7.024;2024-03-07T03:02:42;37.00;;;21.47;;
13404;SDS011;6773;51.192;7.024;2024-03-07T03:05:08;34.53;;;19.90;;
13404;SDS011;6773;51.192;7.024;2024-03-07T03:07:34;38.33;;;20.50;;
13404;SDS011;6773;51.192;7.024;2024-03-07T03:10:01;38.30;;;21.17;;
13404;SDS011;6773;51.192;7.024;2024-03-07T03:12:30;35.60;;;21.27;;
13404;SDS011;6773;51.192;7.024;2024-03-07T03:14:56;36.13;;;20.40;;
13404;SDS011;6773;51.192;7.024;2024-03-07T03:17:22;34.40;;;20.73;;
13404;SDS011;6773;51.192;7.024;2024-03-07T03:19:48;40.63;;;22.20;;
13404;SDS011;6773;51.192;7.024;2024-03-07T03:22:16;36.30;;;20.43;;
13404;SDS011;6773;51.192;7.024;2024-03-07T03:24:43;39.80;;;21.70;;
13404;SDS011;6773;51.192;7.024;2024-03-07T03:27:09;40.63;;;22.03;;
13404;SDS011;6773;51.192;7.024;2024-03-07T03:29:36;39.10;;;21.13;;
13404;SDS011;6773;51.192;7.024;2024-03-07T03:32:03;42.30;;;22.47;;
13404;SDS011;6773;51.192;7.024;2024-03-07T03:34:29;41.53;;;22.73;;
13404;SDS011;6773;51.192;7.024;2024-03-07T03:36:55;40.27;;;22.37;;
13404;SDS011;6773;51.192;7.024;2024-03-07T03:39:21;42.60;;;23.07;;
13404;SDS011;6773;51.192;7.024;2024-03-07T03:41:48;45.03;;;22.50;;
13404;SDS011;6773;51.192;7.024;2024-03-07T03:44:14;38.37;;;22.00;;
13404;SDS011;6773;51.192;7.024;2024-03-07T03:46:39;41.20;;;22.70;;
13404;SDS011;6773;51.192;7.024;2024-03-07T03:49:05;39.23;;;22.03;;
13404;SDS011;6773;51.192;7.024;2024-03-07T03:51:31;43.67;;;22.93;;
13404;SDS011;6773;51.192;7.024;2024-03-07T03:53:57;46.60;;;23.50;;
13404;SDS011;6773;51.192;7.024;2024-03-07T03:56:23;45.37;;;23.50;;
13404;SDS011;6773;51.192;7.024;2024-03-07T03:58:49;41.93;;;23.20;;
13404;SDS011;6773;51.192;7.024;2024-03-07T04:01:15;45.47;;;23.30;;
13404;SDS011;6773;51.192;7.024;2024-03-07T04:03:41;44.13;;;23.30;;
13404;SDS011;6773;51.192;7.024;2024-03-07T04:06:07;43.27;;;23.20;;
13404;SDS011;6773;51.192;7.024;2024-03-07T04:08:34;45.20;;;24.93;;
13404;SDS011;6773;51.192;7.024;2024-03-07T04:11:01;41.50;;;24.27;;
13404;SDS011;6773;51.192;7.024;2024-03-07T04:13:28;44.40;;;22.80;;
13404;SDS011;6773;51.192;7.024;2024-03-07T04:15:55;37.93;;;22.00;;
13404;SDS011;6773;51.192;7.024;2024-03-07T04:18:21;40.27;;;22.00;;
13404;SDS011;6773;51.192;7.024;2024-03-07T04:20:47;44.10;;;23.27;;
13404;SDS011;6773;51.192;7.024;2024-03-07T04:23:13;48.50;;;22.83;;
13404;SDS011;6773;51.192;7.024;2024-03-07T04:25:39;43.17;;;22.43;;
13404;SDS011;6773;51.192;7.024;2024-03-07T04:28:05;43.13;;;22.00;;
13404;SDS011;6773;51.192;7.024;2024-03-07T04:30:30;45.93;;;22.70;;
13404;SDS011;6773;51.192;7.024;2024-03-07T04:32:56;43.40;;;22.93;;
13404;SDS011;6773;51.192;7.024;2024-03-07T04:35:23;48.63;;;24.43;;
13404;SDS011;6773;51.192;7.024;2024-03-07T04:37:49;46.13;;;21.77;;
13404;SDS011;6773;51.192;7.024;2024-03-07T04:40:17;45.50;;;22.83;;
13404;SDS011;6773;51.192;7.024;2024-03-07T04:42:47;44.43;;;24.33;;
13404;SDS011;6773;51.192;7.024;2024-03-07T04:45:19;42.77;;;24.27;;
13404;SDS011;6773;51.192;7.024;2024-03-07T04:47:46;43.70;;;23.70;;
13404;SDS011;6773;51.192;7.024;2024-03-07T04:50:13;47.17;;;24.07;;
13404;SDS011;6773;51.192;7.024;2024-03-07T04:52:42;46.83;;;24.37;;
13404;SDS011;6773;51.192;7.024;2024-03-07T04:55:09;45.40;;;24.80;;
13404;SDS011;6773;51.192;7.024;2024-03-07T04:57:39;46.93;;;25.17;;
13404;SDS011;6773;51.192;7.024;2024-03-07T05:00:15;46.50;;;23.73;;
13404;SDS011;6773;51.192;7.024;2024-03-07T05:02:45;45.33;;;23.23;;
13404;SDS011;6773;51.192;7.024;2024-03-07T05:05:12;48.40;;;25.30;;
13404;SDS011;6773;51.192;7.024;2024-03-07T05:07:38;50.90;;;25.60;;
13404;SDS011;6773;51.192;7.024;2024-03-07T05:10:05;51.37;;;26.27;;
13404;SDS011;6773;51.192;7.024;2024-03-07T05:12:32;48.83;;;25.03;;
13404;SDS011;6773;51.192;7.024;2024-03-07T05:14:58;52.17;;;24.43;;
13404;SDS011;6773;51.192;7.024;2024-03-07T05:17:23;55.23;;;26.73;;
13404;SDS011;6773;51.192;7.024;2024-03-07T05:19:49;51.07;;;25.13;;
13404;SDS011;6773;51.192;7.024;2024-03-07T05:22:15;50.47;;;24.13;;
13404;SDS011;6773;51.192;7.024;2024-03-07T05:24:43;49.03;;;25.67;;
13404;SDS011;6773;51.192;7.024;2024-03-07T05:27:09;51.93;;;27.30;;
13404;SDS011;6773;51.192;7.024;2024-03-07T05:29:39;47.50;;;25.10;;
13404;SDS011;6773;51.192;7.024;2024-03-07T05:32:25;51.63;;;25.80;;
13404;SDS011;6773;51.192;7.024;2024-03-07T05:34:52;46.83;;;23.73;;
13404;SDS011;6773;51.192;7.024;2024-03-07T05:37:21;53.37;;;26.10;;
13404;SDS011;6773;51.192;7.024;2024-03-07T05:39:48;51.57;;;27.77;;
13404;SDS011;6773;51.192;7.024;2024-03-07T05:42:14;49.60;;;26.60;;
13404;SDS011;6773;51.192;7.024;2024-03-07T05:44:43;51.97;;;26.17;;
13404;SDS011;6773;51.192;7.024;2024-03-07T05:47:10;49.30;;;26.37;;
13404;SDS011;6773;51.192;7.024;2024-03-07T05:49:38;49.97;;;27.83;;
13404;SDS011;6773;51.192;7.024;2024-03-07T05:52:04;50.87;;;24.77;;
13404;SDS011;6773;51.192;7.024;2024-03-07T05:54:34;56.30;;;28.17;;
13404;SDS011;6773;51.192;7.024;2024-03-07T05:57:00;48.93;;;26.40;;
13404;SDS011;6773;51.192;7.024;2024-03-07T05:59:27;50.03;;;26.50;;
13404;SDS011;6773;51.192;7.024;2024-03-07T06:01:59;47.97;;;26.53;;
13404;SDS011;6773;51.192;7.024;2024-03-07T06:04:27;55.60;;;25.80;;
13404;SDS011;6773;51.192;7.024;2024-03-07T06:06:54;51.33;;;26.10;;
13404;SDS011;6773;51.192;7.024;2024-03-07T06:09:20;49.03;;;26.27;;
13404;SDS011;6773;51.192;7.024;2024-03-07T06:11:46;55.87;;;26.97;;
13404;SDS011;6773;51.192;7.024;2024-03-07T06:14:13;54.73;;;25.67;;
13404;SDS011;6773;51.192;7.024;2024-03-07T06:16:39;48.73;;;27.03;;
13404;SDS011;6773;51.192;7.024;2024-03-07T06:19:06;48.00;;;27.03;;
13404;SDS011;6773;51.192;7.024;2024-03-07T06:21:32;53.57;;;27.60;;
13404;SDS011;6773;51.192;7.024;2024-03-07T06:23:59;51.10;;;25.97;;
13404;SDS011;6773;51.192;7.024;2024-03-07T06:26:29;52.73;;;25.83;;
13404;SDS011;6773;51.192;7.024;2024-03-07T06:29:19;47.63;;;25.27;;
13404;SDS011;6773;51.192;7.024;2024-03-07T06:31:45;47.97;;;26.90;;
13404;SDS011;6773;51.192;7.024;2024-03-07T06:34:11;54.83;;;25.70;;
13404;SDS011;6773;51.192;7.024;2024-03-07T06:36:38;46.70;;;25.50;;
13404;SDS011;6773;51.192;7.024;2024-03-07T06:39:05;44.67;;;23.30;;
13404;SDS011;6773;51.192;7.024;2024-03-07T06:41:34;51.77;;;25.87;;
13404;SDS011;6773;51.192;7.024;2024-03-07T06:44:00;52.57;;;25.47;;
13404;SDS011;6773;51.192;7.024;2024-03-07T06:46:26;44.10;;;23.77;;
13404;SDS011;6773;51.192;7.024;2024-03-07T06:48:52;45.63;;;24.73;;
13404;SDS011;6773;51.192;7.024;2024-03-07T06:51:18;49.70;;;25.53;;
13404;SDS011;6773;51.192;7.024;2024-03-07T06:53:44;44.00;;;23.77;;
13404;SDS011;6773;51.192;7.024;2024-03-07T06:56:11;42.07;;;24.47;;
13404;SDS011;6773;51.192;7.024;2024-03-07T06:58:38;44.90;;;25.00;;
13404;SDS011;6773;51.192;7.024;2024-03-07T07:01:04;39.83;;;23.77;;
13404;SDS011;6773;51.192;7.024;2024-03-07T07:03:34;40.47;;;23.70;;
13404;SDS011;6773;51.192;7.024;2024-03-07T07:06:00;38.17;;;24.00;;
13404;SDS011;6773;51.192;7.024;2024-03-07T07:08:26;40.73;;;23.53;;
13404;SDS011;6773;51.192;7.024;2024-03-07T07:10:54;37.00;;;22.07;;
13404;SDS011;6773;51.192;7.024;2024-03-07T07:13:21;34.60;;;21.53;;
13404;SDS011;6773;51.192;7.024;2024-03-07T07:15:47;33.93;;;22.10;;
13404;SDS011;6773;51.192;7.024;2024-03-07T07:18:13;32.90;;;20.43;;
13404;SDS011;6773;51.192;7.024;2024-03-07T07:20:39;32.47;;;19.90;;
13404;SDS011;6773;51.192;7.024;2024-03-07T07:23:05;27.83;;;19.50;;
13404;SDS011;6773;51.192;7.024;2024-03-07T07:25:31;27.17;;;18.83;;
13404;SDS011;6773;51.192;7.024;2024-03-07T07:27:57;29.27;;;18.50;;
13404;SDS011;6773;51.192;7.024;2024-03-07T07:30:23;26.80;;;17.93;;
13404;SDS011;6773;51.192;7.024;2024-03-07T07:32:52;26.47;;;17.70;;
13404;SDS011;6773;51.192;7.024;2024-03-07T07:35:19;26.77;;;17.60;;
13404;SDS011;6773;51.192;7.024;2024-03-07T07:37:45;25.47;;;17.97;;
13404;SDS011;6773;51.192;7.024;2024-03-07T07:40:20;24.73;;;17.40;;
13404;SDS011;6773;51.192;7.024;2024-03-07T07:42:48;26.70;;;17.20;;
13404;SDS011;6773;51.192;7.024;2024-03-07T07:45:17;28.87;;;17.93;;
13404;SDS011;6773;51.192;7.024;2024-03-07T07:47:43;25.60;;;17.80;;
13404;SDS011;6773;51.192;7.024;2024-03-07T07:50:10;25.77;;;17.63;;
13404;SDS011;6773;51.192;7.024;2024-03-07T07:53:03;25.17;;;16.63;;
13404;SDS011;6773;51.192;7.024;2024-03-07T07:55:32;24.83;;;17.47;;
13404;SDS011;6773;51.192;7.024;2024-03-07T07:57:58;27.50;;;16.97;;
13404;SDS011;6773;51.192;7.024;2024-03-07T08:00:26;24.03;;;17.60;;
13404;SDS011;6773;51.192;7.024;2024-03-07T08:05:23;26.50;;;18.07;;
13404;SDS011;6773;51.192;7.024;2024-03-07T08:07:53;23.87;;;16.27;;
13404;SDS011;6773;51.192;7.024;2024-03-07T08:10:20;22.63;;;15.63;;
13404;SDS011;6773;51.192;7.024;2024-03-07T08:12:48;22.57;;;16.23;;
13404;SDS011;6773;51.192;7.024;2024-03-07T08:15:14;20.67;;;15.93;;
13404;SDS011;6773;51.192;7.024;2024-03-07T08:17:43;20.40;;;16.00;;
13404;SDS011;6773;51.192;7.024;2024-03-07T08:20:10;23.23;;;17.00;;
13404;SDS011;6773;51.192;7.024;2024-03-07T08:22:40;22.37;;;16.40;;
13404;SDS011;6773;51.192;7.024;2024-03-07T08:25:09;21.00;;;15.07;;
13404;SDS011;6773;51.192;7.024;2024-03-07T08:27:36;20.93;;;15.33;;
13404;SDS011;6773;51.192;7.024;2024-03-07T08:30:03;20.70;;;15.97;;
13404;SDS011;6773;51.192;7.024;2024-03-07T08:32:31;21.87;;;16.27;;
13404;SDS011;6773;51.192;7.024;2024-03-07T08:34:59;19.73;;;15.17;;
13404;SDS011;6773;51.192;7.024;2024-03-07T08:37:31;21.00;;;15.60;;
13404;SDS011;6773;51.192;7.024;2024-03-07T08:39:57;19.03;;;14.83;;
13404;SDS011;6773;51.192;7.024;2024-03-07T08:42:23;19.27;;;14.93;;
13404;SDS011;6773;51.192;7.024;2024-03-07T08:44:49;22.07;;;16.23;;
13404;SDS011;6773;51.192;7.024;2024-03-07T08:47:15;21.93;;;15.70;;
13404;SDS011;6773;51.192;7.024;2024-03-07T08:49:40;22.23;;;15.10;;
13404;SDS011;6773;51.192;7.024;2024-03-07T08:52:06;22.10;;;15.63;;
13404;SDS011;6773;51.192;7.024;2024-03-07T08:54:33;20.17;;;15.13;;
13404;SDS011;6773;51.192;7.024;2024-03-07T08:56:59;19.40;;;14.33;;
13404;SDS011;6773;51.192;7.024;2024-03-07T08:59:25;25.70;;;17.07;;
13404;SDS011;6773;51.192;7.024;2024-03-07T09:01:50;20.17;;;15.10;;
13404;SDS011;6773;51.192;7.024;2024-03-07T09:04:17;18.43;;;13.97;;
13404;SDS011;6773;51.192;7.024;2024-03-07T09:06:43;21.33;;;14.67;;
13404;SDS011;6773;51.192;7.024;2024-03-07T09:09:11;19.20;;;14.63;;
13404;SDS011;6773;51.192;7.024;2024-03-07T09:11:39;19.43;;;13.63;;
13404;SDS011;6773;51.192;7.024;2024-03-07T09:14:07;20.47;;;13.60;;
13404;SDS011;6773;51.192;7.024;2024-03-07T09:16:34;19.10;;;13.70;;
13404;SDS011;6773;51.192;7.024;2024-03-07T09:19:01;19.13;;;14.47;;
13404;SDS011;6773;51.192;7.024;2024-03-07T09:21:28;18.53;;;14.40;;
13404;SDS011;6773;51.192;7.024;2024-03-07T09:23:54;20.70;;;14.20;;
13404;SDS011;6773;51.192;7.024;2024-03-07T09:26:20;22.53;;;15.13;;
13404;SDS011;6773;51.192;7.024;2024-03-07T09:28:46;21.93;;;14.80;;
13404;SDS011;6773;51.192;7.024;2024-03-07T09:31:15;20.20;;;14.40;;
13404;SDS011;6773;51.192;7.024;2024-03-07T09:33:41;18.30;;;14.30;;
13404;SDS011;6773;51.192;7.024;2024-03-07T09:36:07;19.90;;;14.23;;
13404;SDS011;6773;51.192;7.024;2024-03-07T09:38:33;18.57;;;12.60;;
13404;SDS011;6773;51.192;7.024;2024-03-07T09:41:00;18.70;;;13.27;;
13404;SDS011;6773;51.192;7.024;2024-03-07T09:43:26;17.80;;;14.37;;
13404;SDS011;6773;51.192;7.024;2024-03-07T09:45:53;17.33;;;13.23;;
13404;SDS011;6773;51.192;7.024;2024-03-07T09:48:20;18.63;;;13.23;;
13404;SDS011;6773;51.192;7.024;2024-03-07T09:50:47;19.27;;;14.03;;
13404;SDS011;6773;51.192;7.024;2024-03-07T09:53:17;22.47;;;13.90;;
13404;SDS011;6773;51.192;7.024;2024-03-07T09:55:43;18.20;;;12.93;;
13404;SDS011;6773;51.192;7.024;2024-03-07T09:58:09;19.57;;;13.27;;
13404;SDS011;6773;51.192;7.024;2024-03-07T10:00:38;18.93;;;12.40;;
13404;SDS011;6773;51.192;7.024;2024-03-07T10:03:05;19.70;;;13.53;;
13404;SDS011;6773;51.192;7.024;2024-03-07T10:05:31;17.10;;;12.77;;
13404;SDS011;6773;51.192;7.024;2024-03-07T10:07:58;18.77;;;13.10;;
13404;SDS011;6773;51.192;7.024;2024-03-07T10:10:24;17.33;;;13.27;;
13404;SDS011;6773;51.192;7.024;2024-03-07T10:12:51;17.20;;;12.17;;
13404;SDS011;6773;51.192;7.024;2024-03-07T10:15:22;16.80;;;12.77;;
13404;SDS011;6773;51.192;7.024;2024-03-07T10:17:52;19.13;;;13.50;;
13404;SDS011;6773;51.192;7.024;2024-03-07T10:20:18;18.73;;;12.37;;
13404;SDS011;6773;51.192;7.024;2024-03-07T10:22:49;18.13;;;12.80;;
13404;SDS011;6773;51.192;7.024;2024-03-07T10:25:18;16.57;;;11.73;;
13404;SDS011;6773;51.192;7.024;2024-03-07T10:27:46;17.30;;;12.20;;
13404;SDS011;6773;51.192;7.024;2024-03-07T10:30:15;16.60;;;11.87;;
13404;SDS011;6773;51.192;7.024;2024-03-07T10:32:46;16.27;;;11.90;;
13404;SDS011;6773;51.192;7.024;2024-03-07T10:35:12;18.90;;;12.23;;
13404;SDS011;6773;51.192;7.024;2024-03-07T10:37:39;18.30;;;12.00;;
13404;SDS011;6773;51.192;7.024;2024-03-07T10:40:05;16.53;;;11.67;;
13404;SDS011;6773;51.192;7.024;2024-03-07T10:42:42;18.63;;;13.47;;
13404;SDS011;6773;51.192;7.024;2024-03-07T10:45:10;15.27;;;11.70;;
13404;SDS011;6773;51.192;7.024;2024-03-07T10:47:37;17.13;;;12.57;;
13404;SDS011;6773;51.192;7.024;2024-03-07T10:55:40;18.03;;;12.43;;
13404;SDS011;6773;51.192;7.024;2024-03-07T10:58:42;16.87;;;12.00;;
13404;SDS011;6773;51.192;7.024;2024-03-07T11:01:14;15.67;;;11.90;;
13404;SDS011;6773;51.192;7.024;2024-03-07T11:03:42;16.90;;;12.20;;
13404;SDS011;6773;51.192;7.024;2024-03-07T11:06:08;15.30;;;10.67;;
13404;SDS011;6773;51.192;7.024;2024-03-07T11:08:36;16.23;;;11.13;;
13404;SDS011;6773;51.192;7.024;2024-03-07T11:11:03;14.80;;;12.23;;
13404;SDS011;6773;51.192;7.024;2024-03-07T11:13:29;14.77;;;11.47;;
13404;SDS011;6773;51.192;7.024;2024-03-07T11:15:56;14.90;;;11.03;;
13404;SDS011;6773;51.192;7.024;2024-03-07T11:18:25;13.20;;;11.03;;
13404;SDS011;6773;51.192;7.024;2024-03-07T11:20:51;15.13;;;11.13;;
13404;SDS011;6773;51.192;7.024;2024-03-07T11:23:28;12.60;;;10.03;;
13404;SDS011;6773;51.192;7.024;2024-03-07T11:26:02;13.87;;;10.67;;
13404;SDS011;6773;51.192;7.024;2024-03-07T11:28:35;14.03;;;10.60;;
13404;SDS011;6773;51.192;7.024;2024-03-07T11:33:40;13.13;;;10.83;;
13404;SDS011;6773;51.192;7.024;2024-03-07T11:36:08;14.00;;;11.03;;
13404;SDS011;6773;51.192;7.024;2024-03-07T11:38:36;15.17;;;10.77;;
13404;SDS011;6773;51.192;7.024;2024-03-07T11:41:03;15.03;;;10.63;;
13404;SDS011;6773;51.192;7.024;2024-03-07T11:43:33;12.63;;;10.10;;
13404;SDS011;6773;51.192;7.024;2024-03-07T11:46:00;13.93;;;10.67;;
13404;SDS011;6773;51.192;7.024;2024-03-07T11:48:26;14.40;;;10.70;;
13404;SDS011;6773;51.192;7.024;2024-03-07T11:50:52;11.27;;;9.43;;
13404;SDS011;6773;51.192;7.024;2024-03-07T11:53:20;15.07;;;11.27;;
13404;SDS011;6773;51.192;7.024;2024-03-07T11:55:46;11.97;;;10.23;;
13404;SDS011;6773;51.192;7.024;2024-03-07T11:58:19;14.53;;;10.67;;
13404;SDS011;6773;51.192;7.024;2024-03-07T12:00:48;12.97;;;10.03;;
13404;SDS011;6773;51.192;7.024;2024-03-07T12:03:18;14.23;;;10.43;;
13404;SDS011;6773;51.192;7.024;2024-03-07T12:05:48;14.00;;;11.07;;
13404;SDS011;6773;51.192;7.024;2024-03-07T12:08:16;14.83;;;10.37;;
13404;SDS011;6773;51.192;7.024;2024-03-07T12:10:43;11.83;;;9.37;;
13404;SDS011;6773;51.192;7.024;2024-03-07T12:13:13;12.33;;;9.90;;
13404;SDS011;6773;51.192;7.024;2024-03-07T12:15:40;11.50;;;9.30;;
13404;SDS011;6773;51.192;7.024;2024-03-07T12:18:07;12.53;;;9.20;;
13404;SDS011;6773;51.192;7.024;2024-03-07T12:20:37;11.47;;;9.23;;
13404;SDS011;6773;51.192;7.024;2024-03-07T12:23:04;12.50;;;8.97;;
13404;SDS011;6773;51.192;7.024;2024-03-07T12:25:32;11.53;;;9.13;;
13404;SDS011;6773;51.192;7.024;2024-03-07T12:27:59;12.93;;;8.13;;
13404;SDS011;6773;51.192;7.024;2024-03-07T12:30:31;9.67;;;8.37;;
13404;SDS011;6773;51.192;7.024;2024-03-07T12:32:58;9.93;;;7.83;;
13404;SDS011;6773;51.192;7.024;2024-03-07T12:35:25;9.53;;;7.97;;
13404;SDS011;6773;51.192;7.024;2024-03-07T12:37:51;10.27;;;8.57;;
13404;SDS011;6773;51.192;7.024;2024-03-07T12:40:19;11.07;;;9.07;;
13404;SDS011;6773;51.192;7.024;2024-03-07T12:42:48;9.70;;;8.47;;
13404;SDS011;6773;51.192;7.024;2024-03-07T12:45:16;9.77;;;8.43;;
13404;SDS011;6773;51.192;7.024;2024-03-07T12:47:48;9.17;;;8.27;;
13404;SDS011;6773;51.192;7.024;2024-03-07T12:50:16;9.10;;;8.10;;
13404;SDS011;6773;51.192;7.024;2024-03-07T12:52:45;9.90;;;8.23;;
13404;SDS011;6773;51.192;7.024;2024-03-07T12:55:14;11.97;;;8.90;;
13404;SDS011;6773;51.192;7.024;2024-03-07T12:57:43;10.83;;;8.20;;
13404;SDS011;6773;51.192;7.024;2024-03-07T13:00:09;10.47;;;8.10;;
13404;SDS011;6773;51.192;7.024;2024-03-07T13:02:43;11.97;;;8.70;;
13404;SDS011;6773;51.192;7.024;2024-03-07T13:05:10;12.40;;;9.20;;
13404;SDS011;6773;51.192;7.024;2024-03-07T13:07:43;11.37;;;9.23;;
13404;SDS011;6773;51.192;7.024;2024-03-07T13:10:13;14.47;;;9.10;;
13404;SDS011;6773;51.192;7.024;2024-03-07T13:12:46;10.93;;;8.87;;
13404;SDS011;6773;51.192;7.024;2024-03-07T13:15:14;11.23;;;8.97;;
13404;SDS011;6773;51.192;7.024;2024-03-07T13:17:40;12.50;;;8.97;;
13404;SDS011;6773;51.192;7.024;2024-03-07T13:20:10;10.83;;;9.27;;
13404;SDS011;6773;51.192;7.024;2024-03-07T13:22:43;11.00;;;8.43;;
13404;SDS011;6773;51.192;7.024;2024-03-07T13:25:22;10.37;;;9.17;;
13404;SDS011;6773;51.192;7.024;2024-03-07T13:27:54;11.60;;;8.30;;
13404;SDS011;6773;51.192;7.024;2024-03-07T13:30:23;11.87;;;8.30;;
13404;SDS011;6773;51.192;7.024;2024-03-07T13:32:52;10.67;;;9.00;;
13404;SDS011;6773;51.192;7.024;2024-03-07T13:35:18;12.60;;;8.70;;
13404;SDS011;6773;51.192;7.024;2024-03-07T13:37:46;11.87;;;8.87;;
13404;SDS011;6773;51.192;7.024;2024-03-07T13:40:12;12.87;;;9.17;;
13404;SDS011;6773;51.192;7.024;2024-03-07T13:42:57;9.77;;;8.70;;
13404;SDS011;6773;51.192;7.024;2024-03-07T13:45:25;10.50;;;8.97;;
13404;SDS011;6773;51.192;7.024;2024-03-07T13:47:51;10.30;;;8.03;;
13404;SDS011;6773;51.192;7.024;2024-03-07T13:50:19;8.33;;;7.53;;
13404;SDS011;6773;51.192;7.024;2024-03-07T13:52:47;10.10;;;7.47;;
13404;SDS011;6773;51.192;7.024;2024-03-07T13:58:34;8.83;;;7.60;;
13404;SDS011;6773;51.192;7.024;2024-03-07T14:28:38;8.23;;;7.37;;
13404;SDS011;6773;51.192;7.024;2024-03-07T14:31:11;8.33;;;7.53;;
13404;SDS011;6773;51.192;7.024;2024-03-07T14:36:23;10.30;;;7.93;;
13404;SDS011;6773;51.192;7.024;2024-03-07T14:39:00;8.77;;;7.20;;
13404;SDS011;6773;51.192;7.024;2024-03-07T14:44:14;9.40;;;7.70;;
13404;SDS011;6773;51.192;7.024;2024-03-07T14:46:41;10.30;;;8.43;;
13404;SDS011;6773;51.192;7.024;2024-03-07T14:49:07;11.43;;;7.40;;
13404;SDS011;6773;51.192;7.024;2024-03-07T14:51:34;10.03;;;7.60;;
13404;SDS011;6773;51.192;7.024;2024-03-07T14:53:59;9.63;;;7.57;;
13404;SDS011;6773;51.192;7.024;2024-03-07T14:56:28;10.03;;;7.60;;
13404;SDS011;6773;51.192;7.024;2024-03-07T14:58:53;9.30;;;7.13;;
13404;SDS011;6773;51.192;7.024;2024-03-07T15:01:19;10.00;;;8.43;;
13404;SDS011;6773;51.192;7.024;2024-03-07T15:03:45;9.00;;;7.10;;
13404;SDS011;6773;51.192;7.024;2024-03-07T15:06:11;7.33;;;6.63;;
13404;SDS011;6773;51.192;7.024;2024-03-07T15:08:40;10.80;;;7.27;;
13404;SDS011;6773;51.192;7.024;2024-03-07T15:11:07;9.97;;;8.03;;
13404;SDS011;6773;51.192;7.024;2024-03-07T15:13:42;8.00;;;7.23;;
13404;SDS011;6773;51.192;7.024;2024-03-07T15:16:08;9.60;;;7.80;;
13404;SDS011;6773;51.192;7.024;2024-03-07T15:18:33;10.93;;;7.60;;
13404;SDS011;6773;51.192;7.024;2024-03-07T15:20:59;9.20;;;7.63;;
13404;SDS011;6773;51.192;7.024;2024-03-07T15:23:25;10.20;;;8.23;;
13404;SDS011;6773;51.192;7.024;2024-03-07T15:25:51;9.83;;;7.97;;
13404;SDS011;6773;51.192;7.024;2024-03-07T15:28:17;11.53;;;8.77;;